Погода Палмейрас-ди-Гоясна неделю

Гояс, Бразилия

24 - 30 мая
  • 24мая
    Сегодня
    +18°
    +32°
    Облачно с прояснениями
    ВремяПогодаТемператураВлажностьДавлениеВетер, м/сВероятность осадков
    00:00Небольшая облачность+21°C68 %708 мм1.5 м/с5 %
    03:00Облачно с прояснениями+19°C74 %707 мм1.7 м/с5 %
    06:00Практически безоблачно+18°C77 %707 мм1.8 м/с5 %
    09:00Небольшая облачность+24°C56 %710 мм1.0 м/с5 %
    12:00Облачно с прояснениями+29°C40 %710 мм1.1 м/с5 %
    15:00Облачно с прояснениями+31°C36 %708 мм1.7 м/с5 %
    18:00Облачно с прояснениями+29°C45 %708 мм1.1 м/с5 %
    21:00Небольшая облачность+25°C55 %708 мм1.3 м/с5 %
  • 25мая
    Суббота
    +18°
    +32°
    Практически безоблачно
    ВремяПогодаТемператураВлажностьДавлениеВетер, м/сВероятность осадков
    00:00Облачно с прояснениями+22°C62 %708 мм1.5 м/с5 %
    03:00Ясно и безоблачно+20°C69 %707 мм2.1 м/с5 %
    06:00Практически безоблачно+19°C83 %708 мм2.1 м/с5 %
    09:00Ясно и безоблачно+23°C70 %710 мм3.0 м/с5 %
    12:00Ясно и безоблачно+29°C47 %710 мм2.1 м/с5 %
    15:00Практически безоблачно+31°C40 %708 мм1.7 м/с3 %
    18:00Ясно и безоблачно+28°C49 %708 мм2.9 м/с1 %
    21:00Ясно и безоблачно+25°C63 %709 мм4.0 м/с5 %
  • 26мая
    Воскресенье
    +17°
    +32°
    Ясно и безоблачно
    ВремяПогодаТемператураВлажностьДавлениеВетер, м/сВероятность осадков
    00:00Ясно и безоблачно+22°C76 %709 мм4.1 м/с5 %
    03:00Ясно и безоблачно+20°C80 %708 мм3.1 м/с5 %
    06:00Ясно и безоблачно+19°C84 %709 мм2.5 м/с5 %
    09:00Ясно и безоблачно+22°C69 %711 мм2.6 м/с5 %
    12:00Ясно и безоблачно+28°C50 %710 мм2.1 м/с5 %
    15:00Ясно и безоблачно+31°C38 %708 мм0.8 м/с5 %
    18:00Ясно и безоблачно+29°C48 %708 мм1.0 м/с5 %
    21:00Ясно и безоблачно+25°C56 %709 мм3.1 м/с5 %
  • 27мая
    Понедельник
    +19°
    +33°
    Ясно и безоблачно
    ВремяПогодаТемператураВлажностьДавлениеВетер, м/сВероятность осадков
    00:00Небольшая облачность+22°C73 %709 мм1.8 м/с5 %
    03:00Облачно с прояснениями+20°C82 %708 мм1.7 м/с5 %
    06:00Ясно и безоблачно+18°C93 %708 мм1.7 м/с5 %
    09:00Ясно и безоблачно+23°C66 %710 мм0.6 м/с5 %
    12:00Ясно и безоблачно+30°C34 %710 мм1.6 м/с5 %
    15:00Ясно и безоблачно+32°C29 %708 мм1.5 м/с5 %
    18:00Ясно и безоблачно+29°C41 %708 мм2.0 м/с5 %
    21:00Небольшая облачность+25°C45 %709 мм3.0 м/с5 %
  • 28мая
    Вторник
    +16°
    +30°
    Небольшая облачность
    ВремяПогодаТемператураВлажностьДавлениеВетер, м/сВероятность осадков
    00:00Ясно и безоблачно+21°C75 %710 мм3.3 м/с5 %
    03:00Облачно с прояснениями+20°C88 %710 мм2.5 м/с5 %
    06:00Практически безоблачно+20°C92 %710 мм2.9 м/с5 %
    09:00Небольшая облачность+22°C76 %712 мм3.9 м/с5 %
    12:00Практически безоблачно+28°C50 %711 мм2.7 м/с5 %
    15:00Небольшая облачность+30°C46 %710 мм3.7 м/с5 %
    18:00Практически безоблачно+26°C54 %710 мм3.8 м/с5 %
    21:00Ясно и безоблачно+23°C67 %710 мм3.9 м/с5 %
Мы используем cookies
Соглашаюсь